LCA weather

Larnaca International Airport
Larnarca, Larnarca District, Cyprus

Public forecast

Using degrees Celsius for public forecast. Weather courtesy of forecast.io.

Current aviation weather report (METAR) for Larnaca International Airport

Retrieved 2020/07/05 01:30 UTC (2 minutes ago):

LCLK 050130Z 30003KT 8000 NSC 23/18 Q1003 NOSIG

Aviation forecast (TAF) for Larnaca International Airport

Retrieved 2020-07-05 00:30 UTC (1 hour ago):

TAF LCLK 042330Z 0500/0524 34007KT CAVOK PROB40 0500/0506 5000 BR SCT006 PROB30 TEMPO 0500/0505 1500 VCFG BKN002 BECMG 0508/0512 20012KT BECMG 0518/0521 32007KT